createdAt,value
2023-04-25T00:03:59.375Z,52.48
2023-04-25T00:09:01.131Z,51.96
2023-04-25T00:14:03.474Z,52.08
2023-04-25T00:19:05.365Z,51.16
2023-04-25T00:24:08.326Z,52.15
2023-04-25T00:34:21.308Z,51.40
2023-04-25T00:39:22.940Z,52.66
2023-04-25T00:44:25.661Z,51.68
2023-04-25T00:49:27.378Z,50.98
2023-04-25T00:54:29.273Z,52.70
2023-04-25T00:59:31.927Z,51.75
2023-04-25T01:04:33.779Z,51.93
2023-04-25T01:09:36.149Z,51.13
2023-04-25T01:14:38.068Z,50.98
2023-04-25T01:19:39.884Z,51.35
2023-04-25T01:24:41.704Z,54.04
2023-04-25T01:29:43.596Z,52.79
2023-04-25T01:34:45.610Z,52.89
2023-04-25T01:39:47.677Z,53.04
2023-04-25T01:44:49.325Z,53.06
2023-04-25T01:49:51.087Z,53.22
2023-04-25T01:54:53.703Z,52.51
2023-04-25T02:00:04.250Z,52.98
2023-04-25T02:05:06.645Z,52.56
2023-04-25T02:10:08.648Z,52.51
2023-04-25T02:15:10.748Z,52.25
2023-04-25T02:20:12.857Z,52.09
2023-04-25T02:25:14.782Z,50.32
2023-04-25T02:30:16.686Z,49.85
2023-04-25T02:35:18.520Z,49.50
2023-04-25T02:40:20.185Z,51.36
2023-04-25T02:45:22.466Z,51.52
2023-04-25T02:50:24.183Z,53.01
2023-04-25T02:55:28.202Z,53.83
2023-04-25T03:00:30.262Z,52.84
2023-04-25T03:05:32.217Z,50.61
2023-04-25T03:10:34.074Z,51.37
2023-04-25T03:15:37.095Z,50.73
2023-04-25T03:20:40.536Z,49.57
2023-04-25T03:25:42.187Z,50.46
2023-04-25T03:30:43.874Z,52.40
2023-04-25T03:35:45.501Z,50.27
2023-04-25T03:40:47.153Z,50.70
2023-04-25T03:45:48.878Z,52.17
2023-04-25T03:50:50.922Z,53.48
2023-04-25T03:55:53.053Z,50.76
2023-04-25T04:00:54.684Z,52.56
2023-04-25T04:05:56.339Z,52.66
2023-04-25T04:10:59.485Z,51.11
2023-04-25T04:16:01.468Z,50.90
2023-04-25T04:21:03.222Z,51.98
2023-04-25T04:26:04.926Z,50.43
2023-04-25T04:31:06.638Z,51.18
2023-04-25T04:36:08.721Z,50.37
2023-04-25T04:41:10.432Z,50.16
2023-04-25T04:46:13.705Z,50.22
2023-04-25T04:51:15.372Z,51.49
2023-04-25T04:56:16.973Z,52.00
2023-04-25T05:01:18.893Z,50.87
2023-04-25T05:06:20.616Z,49.49
2023-04-25T05:11:23.378Z,49.25
2023-04-25T05:16:25.057Z,49.44
2023-04-25T05:21:27.097Z,50.18
2023-04-25T05:26:32.034Z,50.59
2023-04-25T05:31:34.121Z,51.46
2023-04-25T05:36:35.868Z,51.96
2023-04-25T05:41:37.479Z,50.96
2023-04-25T05:46:39.149Z,51.29
2023-04-25T05:51:40.767Z,52.62
2023-04-25T05:56:42.434Z,52.64
2023-04-25T06:01:44.036Z,52.82
2023-04-25T06:06:45.770Z,54.13
2023-04-25T06:11:47.361Z,53.29
2023-04-25T06:16:48.933Z,52.35
2023-04-25T06:21:50.727Z,52.34
2023-04-25T06:26:52.386Z,51.15
2023-04-25T06:31:54.109Z,52.25
2023-04-25T06:36:55.799Z,51.49
2023-04-25T06:41:57.448Z,52.54
2023-04-25T06:46:59.161Z,52.48
2023-04-25T06:52:01.112Z,55.18
2023-04-25T06:57:02.880Z,53.71
2023-04-25T07:02:04.764Z,54.49
2023-04-25T07:07:06.375Z,56.89
2023-04-25T07:12:08.093Z,54.86
2023-04-25T07:17:09.795Z,54.94
2023-04-25T07:22:12.519Z,55.17
2023-04-25T07:27:14.139Z,57.15
2023-04-25T07:32:15.865Z,56.64
2023-04-25T07:37:19.778Z,58.62
2023-04-25T07:42:22.286Z,54.71
2023-04-25T07:47:24.040Z,57.55
2023-04-25T07:52:25.809Z,57.55
2023-04-25T07:57:27.392Z,58.39
2023-04-25T08:02:29.547Z,58.41
2023-04-25T08:07:31.356Z,57.91
2023-04-25T08:12:33.091Z,56.30
2023-04-25T08:17:34.767Z,57.33
2023-04-25T08:22:36.625Z,60.05
2023-04-25T08:27:38.250Z,59.97
2023-04-25T08:32:40.128Z,59.21
2023-04-25T08:37:42.417Z,58.37
2023-04-25T08:42:44.112Z,58.37
2023-04-25T08:47:46.848Z,57.24
2023-04-25T08:52:51.570Z,56.54
2023-04-25T08:57:55.897Z,58.10
2023-04-25T09:02:59.708Z,56.89
2023-04-25T09:08:01.965Z,58.31
2023-04-25T09:13:30.092Z,58.21
2023-04-25T09:18:33.810Z,58.82
2023-04-25T09:23:42.728Z,57.00
2023-04-25T09:28:44.617Z,55.50
2023-04-25T09:33:47.004Z,54.78
2023-04-25T09:38:48.864Z,55.18
2023-04-25T09:43:51.447Z,54.53
2023-04-25T09:48:54.992Z,53.87
2023-04-25T09:53:56.771Z,52.71
2023-04-25T09:58:59.232Z,52.58
2023-04-25T10:04:02.716Z,50.92
2023-04-25T10:09:05.516Z,52.48
2023-04-25T10:14:07.406Z,51.11
2023-04-25T10:19:09.281Z,52.13
2023-04-25T10:24:11.208Z,50.53
2023-04-25T10:29:12.839Z,48.80
2023-04-25T10:34:14.861Z,50.05
2023-04-25T10:39:23.590Z,51.71
2023-04-25T10:44:31.913Z,49.35
2023-04-25T10:49:51.751Z,48.43
2023-04-25T10:54:58.232Z,47.94
2023-04-25T11:07:06.460Z,51.89
2023-04-25T11:12:10.572Z,56.21
2023-04-25T11:17:12.545Z,56.85
2023-04-25T11:22:14.484Z,57.06
2023-04-25T11:27:16.128Z,59.79
2023-04-25T11:32:21.507Z,63.00
2023-04-25T11:37:23.296Z,65.06
2023-04-25T11:42:25.134Z,64.82
2023-04-25T11:47:34.158Z,64.59
2023-04-25T11:52:46.435Z,64.43
2023-04-25T11:57:51.278Z,61.88
2023-04-25T12:02:59.145Z,60.02
2023-04-25T12:08:14.587Z,59.77
2023-04-25T12:13:34.232Z,56.71
2023-04-25T12:18:37.170Z,55.86
2023-04-25T12:23:40.744Z,59.88
2023-04-25T12:28:46.468Z,58.94
2023-04-25T12:33:48.918Z,56.54
2023-04-25T12:38:50.902Z,58.19
2023-04-25T12:43:52.738Z,56.95
2023-04-25T12:48:54.461Z,57.92
2023-04-25T12:53:57.412Z,57.93
2023-04-25T12:58:59.545Z,58.56
2023-04-25T13:04:01.612Z,58.66
2023-04-25T13:09:04.485Z,59.91
2023-04-25T13:14:06.102Z,60.17
2023-04-25T13:19:09.297Z,59.94
2023-04-25T13:24:10.995Z,58.15
2023-04-25T13:29:12.593Z,57.79
2023-04-25T13:34:14.283Z,57.27
2023-04-25T13:39:15.881Z,57.93
2023-04-25T13:44:17.606Z,55.67
2023-04-25T13:49:19.430Z,51.77
2023-04-25T13:54:21.028Z,55.29
2023-04-25T13:59:22.753Z,53.63
2023-04-25T14:04:24.548Z,54.28
2023-04-25T14:09:28.189Z,53.07
2023-04-25T14:14:29.896Z,52.35
2023-04-25T14:19:31.651Z,53.03
2023-04-25T14:24:33.281Z,51.08
2023-04-25T14:29:35.454Z,49.52
2023-04-25T14:34:37.061Z,50.32
2023-04-25T14:39:38.917Z,52.73
2023-04-25T14:44:40.668Z,55.99
2023-04-25T14:49:42.565Z,55.90
2023-04-25T14:54:44.214Z,54.53
2023-04-25T14:59:46.715Z,56.81
2023-04-25T15:04:48.784Z,56.44
2023-04-25T15:09:50.558Z,56.59
2023-04-25T15:14:52.692Z,59.08
2023-04-25T15:19:55.730Z,58.28
2023-04-25T15:24:57.966Z,56.55
2023-04-25T15:29:59.795Z,57.31
2023-04-25T15:35:04.462Z,56.01
2023-04-25T15:40:11.985Z,53.18
2023-04-25T15:45:14.821Z,53.19
2023-04-25T15:50:16.528Z,51.29
2023-04-25T15:55:19.264Z,52.19
2023-04-25T16:00:22.596Z,50.98
2023-04-25T16:05:24.328Z,51.63
2023-04-25T16:10:26.641Z,50.53
2023-04-25T16:15:28.293Z,50.16
2023-04-25T16:20:30.049Z,50.12
2023-04-25T16:25:31.682Z,51.16
2023-04-25T16:30:33.392Z,53.22
2023-04-25T16:35:35.092Z,51.35
2023-04-25T16:40:36.674Z,51.02
2023-04-25T16:45:38.276Z,52.79
2023-04-25T16:50:39.950Z,53.32
2023-04-25T16:55:41.690Z,52.92
2023-04-25T17:00:43.556Z,54.24
2023-04-25T17:05:45.199Z,52.38
2023-04-25T17:10:46.846Z,52.57
2023-04-25T17:15:48.466Z,51.43
2023-04-25T17:20:50.196Z,52.03
2023-04-25T17:25:51.857Z,51.55
2023-04-25T17:30:53.543Z,52.22
2023-04-25T17:35:55.589Z,55.90
2023-04-25T17:40:57.250Z,54.15
2023-04-25T17:45:59.179Z,53.63
2023-04-25T17:51:01.603Z,53.37
2023-04-25T17:56:05.299Z,54.31
2023-04-25T18:01:08.615Z,56.16
2023-04-25T18:06:12.043Z,58.57
2023-04-25T18:11:13.947Z,55.81
2023-04-25T18:16:15.998Z,54.21
2023-04-25T18:21:17.724Z,54.26
2023-04-25T18:26:20.238Z,55.44
2023-04-25T18:31:25.202Z,55.31
2023-04-25T18:36:27.564Z,55.09
2023-04-25T18:41:51.971Z,53.73
2023-04-25T18:46:51.014Z,53.03
2023-04-25T18:51:54.126Z,51.97
2023-04-25T18:56:57.457Z,51.31
2023-04-25T19:02:01.811Z,50.72
2023-04-25T19:07:04.242Z,50.92
2023-04-25T19:12:06.640Z,51.29
2023-04-25T19:17:08.268Z,50.72
2023-04-25T19:22:10.330Z,51.95
2023-04-25T19:27:11.943Z,50.62
2023-04-25T19:32:14.793Z,50.64
2023-04-25T19:37:17.073Z,49.84
2023-04-25T19:42:19.430Z,50.96
2023-04-25T19:47:21.109Z,52.32
2023-04-25T19:52:22.750Z,54.05
2023-04-25T19:57:26.195Z,52.04
2023-04-25T20:02:28.293Z,51.30
2023-04-25T20:07:30.010Z,51.89
2023-04-25T20:12:31.848Z,50.96
2023-04-25T20:17:33.825Z,50.74
2023-04-25T20:22:40.229Z,50.52
2023-04-25T20:27:42.329Z,50.26
2023-04-25T20:32:44.010Z,50.36
2023-04-25T20:37:46.543Z,52.39
2023-04-25T20:42:48.212Z,52.20
2023-04-25T20:47:50.132Z,54.06
2023-04-25T20:52:52.181Z,51.86
2023-04-25T20:57:53.810Z,54.93
2023-04-25T21:02:57.671Z,52.33
2023-04-25T21:07:59.595Z,53.82
2023-04-25T21:13:02.197Z,54.01
2023-04-25T21:18:04.218Z,52.14
2023-04-25T21:23:05.848Z,50.23
2023-04-25T21:28:07.978Z,53.37
2023-04-25T21:33:09.658Z,53.57
2023-04-25T21:38:12.473Z,53.53
2023-04-25T21:43:14.163Z,52.61
2023-04-25T21:48:15.817Z,52.34
2023-04-25T21:53:17.423Z,51.82
2023-04-25T21:58:19.714Z,50.91
2023-04-25T22:03:21.451Z,51.68
2023-04-25T22:08:23.237Z,50.02
2023-04-25T22:13:25.936Z,52.29
2023-04-25T22:18:27.582Z,54.00
2023-04-25T22:23:29.413Z,51.68
2023-04-25T22:28:31.569Z,50.53
2023-04-25T22:33:33.564Z,53.06
2023-04-25T22:38:35.180Z,50.21
2023-04-25T22:43:39.859Z,50.75
2023-04-25T22:48:41.520Z,52.26
2023-04-25T22:53:43.375Z,50.76
2023-04-25T22:58:45.166Z,50.32
2023-04-25T23:03:47.038Z,49.42
2023-04-25T23:08:48.837Z,51.38
2023-04-25T23:13:50.544Z,51.90
2023-04-25T23:18:52.721Z,52.41
2023-04-25T23:23:54.826Z,52.21
2023-04-25T23:28:56.530Z,54.60
2023-04-25T23:33:58.235Z,55.60
2023-04-25T23:39:02.095Z,55.29
2023-04-25T23:44:03.760Z,54.40
2023-04-25T23:49:05.618Z,56.13
2023-04-25T23:54:07.265Z,56.88
2023-04-25T23:59:09.167Z,55.98
